메인 페이지
METAR-TAF:

METAR-TAF

공항 :

피에르퐁 공항

성베드로, 레위니옹

위도: 21-20S, 경도: 055-29E, 고도: 52m

현재 날씨관측

예보는 22분 전, 09:30시(UTC)에 발표되었습니다.
남동18kt
온도 26°C
습도 58%
기압 1023 hPa
시정 10km 이상
1500m 미만 상공 구름 및 적란운 없음

METAR: FMEP 130930Z AUTO 13018KT CAVOK 26/17 Q1023 BECMG 12025G35KT

시각: 13:52 (09:52 UTC)

예보

예보는 1 시간 52분 전, 08:00시(UTC)에 발표되었습니다.
예보 대상 시간: 13일 09시부터 13일 18시까지 (UTC)
동남동25kt, 순간 최대 풍속 35kt
시정 10km 이상
고도 4500ft 상공 구름 조금

TAF: FMEP 130800Z 1309/1318 12025G35KT 9999 FEW045

4,000개 이상의 공항 관측 자료 및 예보 (METAR 및 TAF 보고).

지도상에서 검색 가능한 기상관측소가 노란 점과 빨간 점으로 표시되어 있습니다.

기상관측소 명을 보려면 표시 위로 마우스를 이동하세요.

날씨 관측과 예보를 보려면 클릭하세요.

지도 변경 : 확대하려면 엑스 표시가 있는 녹색 버튼, 축소하려면 빼기 표시가 있는 녹색 버튼, 다음 페이지의 지도를 보려면 녹색 화살표를 클릭하세요.


METAR-TAF: